createdAt,value
2022-07-26T00:00:34.696Z,0.90
2022-07-26T00:03:04.108Z,1.27
2022-07-26T00:05:33.464Z,0.87
2022-07-26T00:08:12.510Z,0.53
2022-07-26T00:10:43.954Z,0.80
2022-07-26T00:13:14.544Z,1.10
2022-07-26T00:15:44.363Z,0.60
2022-07-26T00:18:14.319Z,0.30
2022-07-26T00:20:48.669Z,0.43
2022-07-26T00:23:19.932Z,0.60
2022-07-26T00:25:50.125Z,1.00
2022-07-26T00:28:20.532Z,0.50
2022-07-26T00:30:49.707Z,0.70
2022-07-26T00:33:18.584Z,0.50
2022-07-26T00:35:47.704Z,0.70
2022-07-26T00:38:16.530Z,0.40
2022-07-26T00:40:45.542Z,0.40
2022-07-26T00:43:14.528Z,0.60
2022-07-26T00:45:45.237Z,0.30
2022-07-26T00:48:14.717Z,0.77
2022-07-26T00:50:45.546Z,0.43
2022-07-26T00:53:14.501Z,2.00
2022-07-26T00:55:43.395Z,0.40
2022-07-26T00:58:13.955Z,0.60
2022-07-26T01:00:45.732Z,0.80
2022-07-26T01:09:21.877Z,1.57
2022-07-26T01:11:51.138Z,0.93
2022-07-26T01:14:23.217Z,1.57
2022-07-26T01:16:54.276Z,0.60
2022-07-26T01:19:24.659Z,0.50
2022-07-26T01:21:55.273Z,0.53
2022-07-26T01:24:26.433Z,0.67
2022-07-26T01:27:00.847Z,1.03
2022-07-26T01:29:35.426Z,0.70
2022-07-26T01:32:05.372Z,0.40
2022-07-26T01:34:34.278Z,0.60
2022-07-26T01:37:06.224Z,1.70
2022-07-26T01:39:35.304Z,0.60
2022-07-26T01:42:04.599Z,0.93
2022-07-26T01:44:33.685Z,0.70
2022-07-26T01:47:02.617Z,0.67
2022-07-26T01:49:31.506Z,1.07
2022-07-26T01:52:00.345Z,1.10
2022-07-26T01:54:31.252Z,0.70
2022-07-26T01:57:00.249Z,0.93
2022-07-26T01:59:36.170Z,1.50
2022-07-26T02:02:05.254Z,0.70
2022-07-26T02:04:51.455Z,1.13
2022-07-26T02:07:20.294Z,0.87
2022-07-26T02:09:51.066Z,0.87
2022-07-26T02:12:21.114Z,0.30
2022-07-26T02:14:50.002Z,0.60
2022-07-26T02:17:19.670Z,0.70
2022-07-26T02:19:49.048Z,0.97
2022-07-26T02:22:20.007Z,0.83
2022-07-26T02:24:50.968Z,0.60
2022-07-26T02:27:20.110Z,0.60
2022-07-26T02:29:49.415Z,0.37
2022-07-26T02:32:18.659Z,0.40
2022-07-26T02:34:47.463Z,1.00
2022-07-26T02:37:16.223Z,0.77
2022-07-26T02:39:45.089Z,0.97
2022-07-26T02:42:16.314Z,0.83
2022-07-26T02:44:45.413Z,0.50
2022-07-26T02:47:14.844Z,0.80
2022-07-26T02:49:43.961Z,0.83
2022-07-26T02:52:12.997Z,0.60
2022-07-26T02:54:41.863Z,0.90
2022-07-26T02:57:11.105Z,0.80
2022-07-26T02:59:41.875Z,0.97
2022-07-26T03:02:10.811Z,1.10
2022-07-26T03:04:39.736Z,0.90
2022-07-26T03:07:10.159Z,0.60
2022-07-26T03:09:39.418Z,0.67
2022-07-26T03:12:08.788Z,0.60
2022-07-26T03:14:37.728Z,1.13
2022-07-26T03:17:08.333Z,0.47
2022-07-26T03:19:37.306Z,0.70
2022-07-26T03:22:06.223Z,1.50
2022-07-26T03:24:35.679Z,0.80
2022-07-26T03:27:05.007Z,0.67
2022-07-26T03:29:34.229Z,0.70
2022-07-26T03:32:03.147Z,0.63
2022-07-26T03:34:33.611Z,0.67
2022-07-26T03:37:02.402Z,0.80
2022-07-26T03:39:31.427Z,1.27
2022-07-26T03:42:00.387Z,1.30
2022-07-26T03:44:29.204Z,1.30
2022-07-26T03:46:58.226Z,0.60
2022-07-26T03:49:27.618Z,0.70
2022-07-26T03:51:58.124Z,1.33
2022-07-26T03:54:28.389Z,1.00
2022-07-26T03:56:56.426Z,0.87
2022-07-26T03:59:25.845Z,1.43
2022-07-26T04:01:55.398Z,1.80
2022-07-26T04:04:25.476Z,1.07
2022-07-26T04:06:57.353Z,0.43
2022-07-26T04:09:26.344Z,0.77
2022-07-26T04:11:55.517Z,0.77
2022-07-26T04:14:24.590Z,0.77
2022-07-26T04:16:53.692Z,1.47
2022-07-26T04:19:22.588Z,0.77
2022-07-26T04:21:51.601Z,1.43
2022-07-26T04:24:25.634Z,2.20
2022-07-26T04:26:54.714Z,1.90
2022-07-26T04:29:23.618Z,0.70
2022-07-26T04:31:52.686Z,0.40
2022-07-26T04:34:21.852Z,0.90
2022-07-26T04:36:50.866Z,0.60
2022-07-26T04:39:24.834Z,0.97
2022-07-26T04:41:55.203Z,0.60
2022-07-26T04:44:24.180Z,1.00
2022-07-26T04:46:53.023Z,1.10
2022-07-26T04:49:23.883Z,0.63
2022-07-26T04:51:56.249Z,1.00
2022-07-26T04:54:28.191Z,0.87
2022-07-26T04:56:58.908Z,0.77
2022-07-26T04:59:27.730Z,0.73
2022-07-26T05:02:01.728Z,0.90
2022-07-26T05:04:32.823Z,0.50
2022-07-26T05:07:02.951Z,0.97
2022-07-26T05:09:31.970Z,0.77
2022-07-26T05:12:02.593Z,0.90
2022-07-26T05:14:31.556Z,0.90
2022-07-26T05:17:08.937Z,0.50
2022-07-26T05:19:39.830Z,1.47
2022-07-26T05:22:08.916Z,1.13
2022-07-26T05:24:38.257Z,1.77
2022-07-26T05:27:09.091Z,0.90
2022-07-26T05:29:37.958Z,0.60
2022-07-26T05:32:07.936Z,1.03
2022-07-26T05:34:37.795Z,0.80
2022-07-26T05:37:06.980Z,1.63
2022-07-26T05:39:37.710Z,1.40
2022-07-26T05:42:08.510Z,1.10
2022-07-26T05:44:42.367Z,2.53
2022-07-26T05:47:12.241Z,0.80
2022-07-26T05:49:42.221Z,0.70
2022-07-26T05:52:11.932Z,0.97
2022-07-26T05:54:41.010Z,1.73
2022-07-26T05:57:11.743Z,1.53
2022-07-26T05:59:40.656Z,0.67
2022-07-26T06:02:10.021Z,0.70
2022-07-26T06:04:39.398Z,1.50
2022-07-26T06:07:09.797Z,1.27
2022-07-26T06:09:41.598Z,0.80
2022-07-26T06:12:12.377Z,0.90
2022-07-26T06:14:42.691Z,0.93
2022-07-26T06:17:13.668Z,0.70
2022-07-26T06:19:47.523Z,0.97
2022-07-26T06:22:17.457Z,1.17
2022-07-26T06:24:47.115Z,0.90
2022-07-26T06:27:17.748Z,1.00
2022-07-26T06:29:48.789Z,1.33
2022-07-26T06:32:18.116Z,0.80
2022-07-26T06:34:47.341Z,0.90
2022-07-26T06:37:16.341Z,0.90
2022-07-26T06:39:46.548Z,0.53
2022-07-26T06:42:18.587Z,1.00
2022-07-26T06:44:48.600Z,0.50
2022-07-26T06:47:18.187Z,0.90
2022-07-26T06:49:49.883Z,1.23
2022-07-26T06:52:19.609Z,1.37
2022-07-26T06:54:50.749Z,0.93
2022-07-26T06:57:22.226Z,1.10
2022-07-26T06:59:52.231Z,0.77
2022-07-26T07:02:22.140Z,1.00
2022-07-26T07:04:51.602Z,1.03
2022-07-26T07:07:21.235Z,1.00
2022-07-26T07:09:52.617Z,0.70
2022-07-26T07:12:26.713Z,0.60
2022-07-26T07:15:03.981Z,0.70
2022-07-26T07:17:35.622Z,0.97
2022-07-26T07:20:06.330Z,0.83
2022-07-26T07:22:35.503Z,0.87
2022-07-26T07:25:06.156Z,1.07
2022-07-26T07:27:40.754Z,1.37
2022-07-26T07:30:11.374Z,1.33
2022-07-26T07:32:41.331Z,1.57
2022-07-26T07:35:12.645Z,1.30
2022-07-26T07:37:52.837Z,1.30
2022-07-26T07:40:26.249Z,0.90
2022-07-26T07:42:57.550Z,1.23
2022-07-26T07:45:26.724Z,1.73
2022-07-26T07:47:56.200Z,2.27
2022-07-26T07:50:27.046Z,1.13
2022-07-26T07:52:56.595Z,1.27
2022-07-26T07:55:46.220Z,1.70
2022-07-26T07:58:19.555Z,1.27
2022-07-26T08:00:52.391Z,1.73
2022-07-26T08:03:25.856Z,1.20
2022-07-26T08:06:10.948Z,1.00
2022-07-26T08:09:06.488Z,0.93
2022-07-26T08:11:50.785Z,1.50
2022-07-26T08:14:21.837Z,1.17
2022-07-26T08:16:52.662Z,1.33
2022-07-26T08:19:22.598Z,1.47
2022-07-26T08:21:51.957Z,1.37
2022-07-26T08:24:22.515Z,1.83
2022-07-26T08:26:55.651Z,1.00
2022-07-26T08:29:30.282Z,1.00
2022-07-26T08:31:59.411Z,0.93
2022-07-26T08:34:31.567Z,1.03
2022-07-26T08:37:18.295Z,1.00
2022-07-26T08:39:53.548Z,1.13
2022-07-26T08:42:41.167Z,1.70
2022-07-26T08:45:27.147Z,1.20
2022-07-26T08:50:51.006Z,1.57
2022-07-26T08:53:28.909Z,1.53
2022-07-26T09:11:41.762Z,2.43
2022-07-26T09:14:16.211Z,2.23
2022-07-26T09:17:02.534Z,3.60
2022-07-26T09:19:37.560Z,2.83
2022-07-26T09:22:13.555Z,2.70
2022-07-26T09:24:57.597Z,1.47
2022-07-26T09:27:38.961Z,1.90
2022-07-26T09:30:16.214Z,1.87
2022-07-26T09:33:02.316Z,1.73
2022-07-26T09:35:50.381Z,2.00
2022-07-26T09:38:24.637Z,2.57
2022-07-26T09:40:56.018Z,1.73
2022-07-26T09:43:41.895Z,1.50
2022-07-26T09:46:11.735Z,1.73
2022-07-26T09:51:43.007Z,1.53
2022-07-26T09:54:16.643Z,1.80
2022-07-26T10:03:02.274Z,1.93
2022-07-26T10:05:50.027Z,0.90
2022-07-26T10:08:29.082Z,0.50
2022-07-26T10:11:10.209Z,0.53
2022-07-26T10:13:43.399Z,0.50
2022-07-26T10:26:59.059Z,1.00
2022-07-26T10:33:18.574Z,0.83
2022-07-26T10:36:27.812Z,0.60
2022-07-26T10:39:20.473Z,0.63
2022-07-26T10:42:22.369Z,0.40
2022-07-26T10:51:14.834Z,0.50
2022-07-26T10:57:16.377Z,0.40
2022-07-26T10:59:55.826Z,0.47
2022-07-26T11:02:33.943Z,0.30
2022-07-26T11:05:16.001Z,0.50
2022-07-26T11:08:07.447Z,0.30
2022-07-26T11:10:52.993Z,0.30
2022-07-26T11:13:40.953Z,0.30
2022-07-26T11:16:13.727Z,0.30
2022-07-26T11:19:00.005Z,0.40
2022-07-26T11:21:35.216Z,0.43
2022-07-26T11:24:19.223Z,0.27
2022-07-26T11:27:07.688Z,0.40
2022-07-26T11:29:41.179Z,0.27
2022-07-26T11:32:26.007Z,0.67
2022-07-26T11:35:02.389Z,0.30
2022-07-26T11:40:57.205Z,0.43
2022-07-26T11:43:30.303Z,0.30
2022-07-26T11:46:02.192Z,0.40
2022-07-26T11:48:33.650Z,0.27
2022-07-26T11:51:15.005Z,0.30
2022-07-26T11:53:56.879Z,0.43
2022-07-26T11:59:21.885Z,0.30
2022-07-26T12:02:13.453Z,0.57
2022-07-26T12:04:47.686Z,0.40
2022-07-26T12:11:09.554Z,0.30
2022-07-26T12:13:57.145Z,0.30
2022-07-26T12:16:47.482Z,0.30
2022-07-26T12:19:46.745Z,0.40
2022-07-26T12:25:45.076Z,0.30
2022-07-26T12:28:56.246Z,0.30
2022-07-26T12:31:58.964Z,0.70
2022-07-26T12:34:40.112Z,0.30
2022-07-26T12:37:40.062Z,0.30
2022-07-26T12:40:14.509Z,0.50
2022-07-26T12:43:03.009Z,0.40
2022-07-26T12:45:49.803Z,0.30
2022-07-26T12:51:46.931Z,0.60
2022-07-26T12:54:18.036Z,0.40
2022-07-26T12:56:56.969Z,0.40
2022-07-26T12:59:27.243Z,0.50
2022-07-26T13:01:58.145Z,0.43
2022-07-26T13:04:42.018Z,0.50
2022-07-26T13:07:17.355Z,0.40
2022-07-26T13:10:30.023Z,0.40
2022-07-26T13:16:11.870Z,0.30
2022-07-26T13:18:55.276Z,0.47
2022-07-26T13:24:55.778Z,0.40
2022-07-26T13:30:28.500Z,0.30
2022-07-26T13:33:12.847Z,0.40
2022-07-26T13:35:50.286Z,0.50
2022-07-26T13:38:25.462Z,0.50
2022-07-26T13:41:22.844Z,0.50
2022-07-26T13:43:54.486Z,0.40
2022-07-26T13:46:45.759Z,0.57
2022-07-26T13:49:24.885Z,0.47
2022-07-26T13:52:02.552Z,0.30
2022-07-26T13:54:42.026Z,0.60
2022-07-26T13:57:21.672Z,0.50
2022-07-26T13:59:59.506Z,0.30
2022-07-26T14:02:44.772Z,0.87
2022-07-26T14:05:23.863Z,0.40
2022-07-26T14:08:02.382Z,0.50
2022-07-26T14:13:31.574Z,0.30
2022-07-26T14:16:06.830Z,0.60
2022-07-26T14:18:55.335Z,0.37
2022-07-26T14:21:59.395Z,0.73
2022-07-26T14:24:30.806Z,0.40
2022-07-26T14:27:05.748Z,0.60
2022-07-26T14:30:09.816Z,0.70
2022-07-26T14:32:40.158Z,0.60
2022-07-26T14:35:14.404Z,0.30
2022-07-26T14:37:49.793Z,0.30
2022-07-26T14:40:21.951Z,0.60
2022-07-26T14:42:57.569Z,0.50
2022-07-26T14:45:43.736Z,0.30
2022-07-26T14:51:13.284Z,0.40
2022-07-26T14:54:01.442Z,0.30
2022-07-26T14:59:57.212Z,0.40
2022-07-26T15:02:32.216Z,0.30
2022-07-26T15:05:30.349Z,0.40
2022-07-26T15:08:15.435Z,0.30
2022-07-26T15:11:04.821Z,0.43
2022-07-26T15:13:52.697Z,0.30
2022-07-26T15:16:42.995Z,0.47
2022-07-26T15:28:37.076Z,0.57
2022-07-26T15:34:37.876Z,0.40
2022-07-26T15:52:49.394Z,0.60
2022-07-26T15:58:23.132Z,0.30
2022-07-26T16:01:09.425Z,0.60
2022-07-26T16:03:42.965Z,0.77
2022-07-26T16:06:29.369Z,0.80
2022-07-26T16:09:21.300Z,0.30
2022-07-26T16:12:10.680Z,0.50
2022-07-26T16:14:57.222Z,0.40
2022-07-26T16:17:47.792Z,0.30
2022-07-26T16:20:32.549Z,0.70
2022-07-26T16:23:29.694Z,1.80
2022-07-26T16:35:39.775Z,0.40
2022-07-26T16:44:15.083Z,0.90
2022-07-26T16:47:01.529Z,0.60
2022-07-26T16:49:31.081Z,0.93
2022-07-26T16:52:15.667Z,0.40
2022-07-26T16:55:01.906Z,0.50
2022-07-26T16:57:58.717Z,0.60
2022-07-26T17:03:20.487Z,0.67
2022-07-26T17:05:54.197Z,0.40
2022-07-26T17:08:46.085Z,0.87
2022-07-26T17:17:35.136Z,0.93
2022-07-26T17:24:11.384Z,0.60
2022-07-26T17:27:32.881Z,0.83
2022-07-26T17:37:03.297Z,0.50
2022-07-26T17:39:52.195Z,0.70
2022-07-26T17:42:44.406Z,0.40
2022-07-26T17:58:43.846Z,0.60
2022-07-26T18:01:53.733Z,0.47
2022-07-26T18:07:59.198Z,0.90
2022-07-26T18:13:48.101Z,0.93
2022-07-26T18:16:33.413Z,0.50
2022-07-26T18:19:14.479Z,0.40
2022-07-26T18:22:02.825Z,0.53
2022-07-26T18:28:04.750Z,0.50
2022-07-26T18:30:57.640Z,0.57
2022-07-26T18:33:31.657Z,0.80
2022-07-26T18:36:21.916Z,1.13
2022-07-26T18:39:09.921Z,1.10
2022-07-26T18:41:59.943Z,0.70
2022-07-26T18:44:47.204Z,0.80
2022-07-26T18:47:32.037Z,0.83
2022-07-26T18:54:06.196Z,0.50
2022-07-26T18:59:48.016Z,0.40
2022-07-26T19:02:29.779Z,0.70
2022-07-26T19:05:24.453Z,0.97
2022-07-26T19:10:49.021Z,0.80
2022-07-26T19:13:26.648Z,0.60
2022-07-26T19:15:57.608Z,0.60
2022-07-26T19:18:27.916Z,0.50
2022-07-26T19:21:00.204Z,0.87
2022-07-26T19:23:32.572Z,0.80
2022-07-26T19:26:10.324Z,0.37
2022-07-26T19:28:40.225Z,0.50
2022-07-26T19:31:28.547Z,1.03
2022-07-26T19:34:00.092Z,0.40
2022-07-26T19:36:44.067Z,0.83
2022-07-26T19:39:16.460Z,0.57
2022-07-26T19:41:48.352Z,0.67
2022-07-26T19:44:19.380Z,0.60
2022-07-26T19:46:52.995Z,0.60
2022-07-26T19:49:25.513Z,0.70
2022-07-26T19:51:55.430Z,0.90
2022-07-26T19:54:30.842Z,0.73
2022-07-26T19:57:00.957Z,0.50
2022-07-26T19:59:35.057Z,0.50
2022-07-26T20:02:07.382Z,0.53
2022-07-26T20:04:58.591Z,0.50
2022-07-26T20:07:30.399Z,0.77
2022-07-26T20:10:19.898Z,2.83
2022-07-26T20:12:51.625Z,2.40
2022-07-26T20:15:22.949Z,0.53
2022-07-26T20:17:52.356Z,0.90
2022-07-26T20:20:23.384Z,0.70
2022-07-26T20:22:53.118Z,0.70
2022-07-26T20:25:25.857Z,0.53
2022-07-26T20:27:56.062Z,0.50
2022-07-26T20:30:25.813Z,0.80
2022-07-26T20:32:55.879Z,0.90
2022-07-26T20:35:25.297Z,0.77
2022-07-26T20:37:56.109Z,0.70
2022-07-26T20:40:29.333Z,0.77
2022-07-26T20:42:58.876Z,0.67
2022-07-26T20:45:28.168Z,0.67
2022-07-26T20:47:57.883Z,1.03
2022-07-26T20:50:27.655Z,0.47
2022-07-26T20:52:57.906Z,0.40
2022-07-26T20:55:29.858Z,0.53
2022-07-26T20:57:59.675Z,0.67
2022-07-26T21:00:31.908Z,0.63
2022-07-26T21:03:02.597Z,0.40
2022-07-26T21:05:32.902Z,0.50
2022-07-26T21:08:02.404Z,0.50
2022-07-26T21:10:34.547Z,0.50
2022-07-26T21:13:04.144Z,0.67
2022-07-26T21:15:34.097Z,0.43
2022-07-26T21:18:04.911Z,0.80
2022-07-26T21:20:34.799Z,0.40
2022-07-26T21:23:16.778Z,0.77
2022-07-26T21:25:49.914Z,0.30
2022-07-26T21:28:27.382Z,0.50
2022-07-26T21:30:57.447Z,0.30
2022-07-26T21:33:26.996Z,1.17
2022-07-26T21:35:56.881Z,0.70
2022-07-26T21:38:29.228Z,0.80
2022-07-26T21:41:01.569Z,0.40
2022-07-26T21:43:32.118Z,0.53
2022-07-26T21:46:03.104Z,0.60
2022-07-26T21:48:32.622Z,0.63
2022-07-26T21:51:03.794Z,0.63
2022-07-26T21:53:34.071Z,0.60
2022-07-26T21:56:06.746Z,0.50
2022-07-26T21:58:37.140Z,0.77
2022-07-26T22:01:07.659Z,0.80
2022-07-26T22:03:40.172Z,0.53
2022-07-26T22:06:10.082Z,0.70
2022-07-26T22:08:40.225Z,0.30
2022-07-26T22:11:12.324Z,0.50
2022-07-26T22:13:43.104Z,0.83
2022-07-26T22:16:12.753Z,0.80
2022-07-26T22:18:41.740Z,0.43
2022-07-26T22:21:10.711Z,0.50
2022-07-26T22:23:39.741Z,0.47
2022-07-26T22:26:11.451Z,0.90
2022-07-26T22:28:40.479Z,0.30
2022-07-26T22:31:09.877Z,0.60
2022-07-26T22:33:39.111Z,0.30
2022-07-26T22:36:10.112Z,0.30
2022-07-26T22:38:42.157Z,0.40
2022-07-26T22:41:13.884Z,0.83
2022-07-26T22:43:44.765Z,3.40
2022-07-26T22:46:14.847Z,1.57
2022-07-26T22:48:48.060Z,0.80
2022-07-26T22:51:17.521Z,0.50
2022-07-26T22:53:46.593Z,1.03
2022-07-26T22:56:19.900Z,0.50
2022-07-26T22:58:48.928Z,0.80
2022-07-26T23:01:17.882Z,0.63
2022-07-26T23:03:49.616Z,0.40
2022-07-26T23:06:31.174Z,0.40
2022-07-26T23:11:38.614Z,0.67
2022-07-26T23:14:07.526Z,0.40
2022-07-26T23:16:36.932Z,0.43
2022-07-26T23:19:08.029Z,0.30
2022-07-26T23:21:37.189Z,0.50
2022-07-26T23:24:06.280Z,0.30
2022-07-26T23:26:36.611Z,0.30
2022-07-26T23:29:08.792Z,0.63
2022-07-26T23:31:38.471Z,0.57
2022-07-26T23:34:08.418Z,0.30
2022-07-26T23:36:39.128Z,0.30
2022-07-26T23:39:07.858Z,0.60
2022-07-26T23:41:38.856Z,0.53
2022-07-26T23:44:08.284Z,0.80
2022-07-26T23:46:38.587Z,1.03
2022-07-26T23:49:07.906Z,0.90
2022-07-26T23:51:39.039Z,0.53
2022-07-26T23:54:07.990Z,0.77
2022-07-26T23:56:39.768Z,0.60
2022-07-26T23:59:08.718Z,0.70
